createdAt,value
2018-07-21T00:01:04.577Z,8.28
2018-07-21T00:03:32.777Z,7.78
2018-07-21T00:06:00.958Z,8.23
2018-07-21T00:08:29.129Z,6.03
2018-07-21T00:10:57.353Z,16.87
2018-07-21T00:13:25.519Z,7.25
2018-07-21T00:15:53.710Z,11.08
2018-07-21T00:18:21.890Z,8.25
2018-07-21T00:20:50.074Z,6.47
2018-07-21T00:23:18.254Z,7.83
2018-07-21T00:25:46.449Z,7.17
2018-07-21T00:28:14.639Z,4.55
2018-07-21T00:30:42.822Z,5.47
2018-07-21T00:33:11.007Z,9.38
2018-07-21T00:35:39.198Z,7.95
2018-07-21T00:38:07.421Z,5.37
2018-07-21T00:40:35.576Z,5.10
2018-07-21T00:43:03.758Z,8.93
2018-07-21T00:45:31.943Z,6.55
2018-07-21T00:48:00.249Z,9.88
2018-07-21T00:50:28.422Z,6.58
2018-07-21T00:52:56.610Z,5.10
2018-07-21T00:55:24.793Z,11.35
2018-07-21T00:57:52.982Z,7.60
2018-07-21T01:00:22.214Z,9.40
2018-07-21T01:02:50.384Z,6.72
2018-07-21T01:05:18.574Z,8.58
2018-07-21T01:07:46.751Z,9.00
2018-07-21T01:10:15.862Z,8.63
2018-07-21T01:12:44.046Z,4.85
2018-07-21T01:15:12.214Z,9.50
2018-07-21T01:17:40.318Z,7.05
2018-07-21T01:20:08.623Z,11.10
2018-07-21T01:22:36.906Z,8.28
2018-07-21T01:25:06.425Z,7.35
2018-07-21T01:27:34.594Z,7.10
2018-07-21T01:30:02.794Z,10.40
2018-07-21T01:32:30.966Z,11.18
2018-07-21T01:34:59.163Z,14.50
2018-07-21T01:37:27.344Z,8.30
2018-07-21T01:39:55.533Z,12.75
2018-07-21T01:42:23.726Z,9.43
2018-07-21T01:44:51.910Z,17.60
2018-07-21T01:47:20.117Z,12.33
2018-07-21T01:49:48.291Z,15.78
2018-07-21T01:52:16.470Z,11.80
2018-07-21T01:54:44.654Z,9.03
2018-07-21T01:57:12.833Z,14.45
2018-07-21T01:59:41.022Z,8.05
2018-07-21T02:02:09.206Z,8.25
2018-07-21T02:04:37.422Z,5.85
2018-07-21T02:07:05.817Z,5.53
2018-07-21T02:09:33.968Z,8.28
2018-07-21T02:12:02.161Z,13.28
2018-07-21T02:14:30.342Z,9.38
2018-07-21T02:16:58.554Z,15.45
2018-07-21T02:19:26.701Z,9.68
2018-07-21T02:21:54.806Z,8.50
2018-07-21T02:24:22.977Z,10.80
2018-07-21T02:26:51.079Z,5.72
2018-07-21T02:29:19.241Z,8.03
2018-07-21T02:31:47.338Z,12.47
2018-07-21T02:34:15.522Z,9.05
2018-07-21T02:36:43.612Z,8.70
2018-07-21T02:39:12.539Z,8.08
2018-07-21T02:41:41.043Z,7.30
2018-07-21T02:44:09.209Z,11.05
2018-07-21T02:46:37.382Z,13.53
2018-07-21T02:49:05.591Z,9.68
2018-07-21T02:51:33.751Z,8.35
2018-07-21T02:54:01.835Z,5.80
2018-07-21T02:56:29.920Z,11.28
2018-07-21T02:58:59.006Z,11.57
2018-07-21T03:01:27.119Z,9.50
2018-07-21T03:03:55.313Z,14.28
2018-07-21T03:06:23.418Z,10.15
2018-07-21T03:08:51.570Z,11.45
2018-07-21T03:11:19.667Z,10.98
2018-07-21T03:13:48.045Z,8.80
2018-07-21T03:16:16.137Z,7.22
2018-07-21T03:18:44.330Z,7.90
2018-07-21T03:21:12.530Z,14.58
2018-07-21T03:23:40.732Z,9.70
2018-07-21T03:26:08.894Z,6.22
2018-07-21T03:28:37.074Z,10.35
2018-07-21T03:31:05.271Z,11.20
2018-07-21T03:33:33.453Z,10.75
2018-07-21T03:36:01.641Z,8.95
2018-07-21T03:38:29.813Z,10.45
2018-07-21T03:40:57.910Z,17.87
2018-07-21T03:43:26.105Z,11.00
2018-07-21T03:45:54.317Z,10.50
2018-07-21T03:48:22.472Z,11.15
2018-07-21T03:50:50.657Z,7.78
2018-07-21T03:53:18.845Z,9.10
2018-07-21T03:55:47.257Z,12.28
2018-07-21T03:58:15.583Z,11.33
2018-07-21T04:00:43.940Z,7.08
2018-07-21T04:03:12.101Z,9.70
2018-07-21T04:05:40.305Z,6.67
2018-07-21T04:08:08.471Z,9.80
2018-07-21T04:10:36.659Z,9.45
2018-07-21T04:13:05.062Z,8.75
2018-07-21T04:15:33.229Z,6.03
2018-07-21T04:18:01.330Z,5.90
2018-07-21T04:20:30.438Z,6.17
2018-07-21T04:22:58.622Z,7.60
2018-07-21T04:25:26.802Z,5.45
2018-07-21T04:27:55.005Z,8.08
2018-07-21T04:30:23.177Z,6.70
2018-07-21T04:32:51.405Z,6.22
2018-07-21T04:35:19.549Z,5.30
2018-07-21T04:37:47.638Z,8.73
2018-07-21T04:40:16.746Z,7.47
2018-07-21T04:42:45.061Z,6.45
2018-07-21T04:45:13.218Z,6.47
2018-07-21T04:47:41.422Z,6.47
2018-07-21T04:50:09.596Z,8.00
2018-07-21T04:52:37.788Z,6.53
2018-07-21T04:55:05.968Z,7.90
2018-07-21T04:57:34.161Z,8.80
2018-07-21T05:00:02.341Z,8.05
2018-07-21T05:02:30.553Z,7.30
2018-07-21T05:04:58.726Z,8.90
2018-07-21T05:07:26.984Z,11.83
2018-07-21T05:09:55.094Z,10.13
2018-07-21T05:12:23.277Z,7.08
2018-07-21T05:14:51.461Z,10.30
2018-07-21T05:17:19.669Z,8.43
2018-07-21T05:19:47.829Z,7.37
2018-07-21T05:22:15.952Z,6.78
2018-07-21T05:24:44.220Z,6.40
2018-07-21T05:27:12.527Z,5.60
2018-07-21T05:29:40.707Z,6.12
2018-07-21T05:32:09.157Z,5.50
2018-07-21T05:34:37.262Z,5.80
2018-07-21T05:37:05.469Z,7.78
2018-07-21T05:39:33.644Z,6.45
2018-07-21T05:42:01.858Z,5.80
2018-07-21T05:44:30.015Z,6.12
2018-07-21T05:46:58.206Z,6.75
2018-07-21T05:49:26.384Z,6.17
2018-07-21T05:51:54.586Z,5.40
2018-07-21T05:54:22.674Z,5.47
2018-07-21T05:56:50.848Z,5.90
2018-07-21T05:59:19.045Z,6.05
2018-07-21T06:01:47.213Z,10.15
2018-07-21T06:04:15.422Z,5.80
2018-07-21T06:06:43.598Z,7.37
2018-07-21T06:09:12.009Z,5.20
2018-07-21T06:11:40.705Z,4.67
2018-07-21T06:14:08.998Z,5.42
2018-07-21T06:16:37.165Z,4.65
2018-07-21T06:19:05.420Z,6.08
2018-07-21T06:21:33.561Z,5.80
2018-07-21T06:24:01.615Z,4.05
2018-07-21T06:26:30.062Z,8.20
2018-07-21T06:28:58.185Z,3.62
2018-07-21T06:31:26.272Z,4.17
2018-07-21T06:33:54.355Z,5.33
2018-07-21T06:36:22.774Z,4.50
2018-07-21T06:38:50.944Z,5.95
2018-07-21T06:41:19.124Z,3.55
2018-07-21T06:43:47.352Z,3.70
2018-07-21T06:46:15.498Z,3.52
2018-07-21T06:48:43.691Z,4.35
2018-07-21T06:51:11.861Z,3.70
2018-07-21T06:53:39.782Z,3.58
2018-07-21T06:56:07.929Z,3.62
2018-07-21T06:58:36.017Z,3.58
2018-07-21T07:01:04.102Z,3.20
2018-07-21T07:03:32.191Z,3.10
2018-07-21T07:06:00.279Z,4.05
2018-07-21T07:08:28.342Z,5.78
2018-07-21T07:10:56.435Z,3.52
2018-07-21T07:13:24.528Z,5.78
2018-07-21T07:15:52.613Z,6.35
2018-07-21T07:18:20.818Z,4.65
2018-07-21T07:20:48.923Z,3.65
2018-07-21T07:23:17.101Z,7.97
2018-07-21T07:25:45.251Z,9.10
2018-07-21T07:28:13.348Z,6.20
2018-07-21T07:30:41.426Z,4.58
2018-07-21T07:33:09.518Z,3.98
2018-07-21T07:35:37.594Z,3.55
2018-07-21T07:38:05.690Z,3.58
2018-07-21T07:40:33.871Z,6.50
2018-07-21T07:43:02.062Z,4.40
2018-07-21T07:45:30.233Z,4.00
2018-07-21T07:47:58.321Z,5.62
2018-07-21T07:50:27.439Z,4.45
2018-07-21T07:52:55.627Z,4.55
2018-07-21T07:55:23.700Z,8.18
2018-07-21T07:57:51.781Z,5.80
2018-07-21T08:00:20.926Z,6.62
2018-07-21T08:02:48.996Z,17.77
2018-07-21T08:05:17.197Z,5.62
2018-07-21T08:07:45.347Z,5.78
2018-07-21T08:10:13.458Z,3.62
2018-07-21T08:12:41.650Z,3.00
2018-07-21T08:15:09.838Z,3.08
2018-07-21T08:17:38.006Z,2.80
2018-07-21T08:20:06.237Z,3.22
2018-07-21T08:22:34.386Z,6.00
2018-07-21T08:25:02.591Z,3.22
2018-07-21T08:27:30.754Z,3.10
2018-07-21T08:29:58.933Z,3.72
2018-07-21T08:32:27.013Z,3.05
2018-07-21T08:34:55.102Z,3.60
2018-07-21T08:37:23.190Z,3.67
2018-07-21T08:39:51.281Z,3.42
2018-07-21T08:42:19.449Z,4.78
2018-07-21T08:44:47.537Z,3.55
2018-07-21T08:47:15.629Z,3.58
2018-07-21T08:49:43.867Z,3.55
2018-07-21T08:52:12.026Z,4.70
2018-07-21T08:54:40.186Z,6.15
2018-07-21T08:57:08.285Z,6.75
2018-07-21T08:59:36.481Z,4.70
2018-07-21T09:02:04.773Z,5.50
2018-07-21T09:04:32.950Z,7.83
2018-07-21T09:07:01.145Z,5.12
2018-07-21T09:09:29.333Z,5.22
2018-07-21T09:11:57.491Z,7.70
2018-07-21T09:14:25.587Z,7.03
2018-07-21T09:16:53.766Z,6.35
2018-07-21T09:19:21.970Z,5.65
2018-07-21T09:21:50.202Z,34.98
2018-07-21T09:24:18.397Z,31.93
2018-07-21T09:26:46.537Z,58.45
2018-07-21T09:29:14.721Z,19.98
2018-07-21T09:31:42.901Z,44.93
2018-07-21T09:34:11.181Z,31.35
2018-07-21T09:36:39.282Z,24.77
2018-07-21T09:39:09.017Z,17.80
2018-07-21T09:41:37.186Z,9.83
2018-07-21T09:44:05.401Z,8.28
2018-07-21T09:46:33.548Z,8.58
2018-07-21T09:49:01.766Z,10.90
2018-07-21T09:51:30.087Z,9.60
2018-07-21T09:53:58.241Z,11.65
2018-07-21T09:56:26.530Z,9.55
2018-07-21T09:58:54.742Z,9.50
2018-07-21T10:01:22.878Z,11.00
2018-07-21T10:03:51.077Z,13.30
2018-07-21T10:06:19.261Z,10.25
2018-07-21T10:08:47.458Z,10.72
2018-07-21T10:11:15.629Z,11.08
2018-07-21T10:13:43.826Z,14.93
2018-07-21T10:16:12.005Z,10.32
2018-07-21T10:18:40.193Z,12.63
2018-07-21T10:21:08.390Z,16.87
2018-07-21T10:23:36.561Z,10.60
2018-07-21T10:26:10.245Z,14.13
2018-07-21T10:28:43.694Z,15.63
2018-07-21T10:31:11.882Z,12.37
2018-07-21T10:33:40.146Z,14.10
2018-07-21T10:36:08.266Z,12.35
2018-07-21T10:38:36.566Z,13.40
2018-07-21T10:41:04.746Z,14.33
2018-07-21T10:43:32.911Z,11.48
2018-07-21T10:46:01.097Z,11.68
2018-07-21T10:48:29.304Z,13.53
2018-07-21T10:50:57.486Z,11.97
2018-07-21T10:53:25.670Z,20.82
2018-07-21T10:55:53.890Z,14.28
2018-07-21T10:58:22.041Z,11.65
2018-07-21T11:00:50.249Z,11.12
2018-07-21T11:03:18.478Z,12.65
2018-07-21T11:05:46.614Z,13.65
2018-07-21T11:08:14.883Z,15.83
2018-07-21T11:10:42.992Z,14.18
2018-07-21T11:13:11.193Z,11.08
2018-07-21T11:15:39.359Z,11.57
2018-07-21T11:18:07.535Z,14.07
2018-07-21T11:20:35.725Z,18.98
2018-07-21T11:23:03.898Z,13.68
2018-07-21T11:25:32.221Z,20.37
2018-07-21T11:28:00.384Z,16.00
2018-07-21T11:30:28.589Z,14.90
2018-07-21T11:32:56.776Z,16.48
2018-07-21T11:35:25.109Z,15.43
2018-07-21T11:37:53.146Z,17.80
2018-07-21T11:40:21.317Z,15.80
2018-07-21T11:42:49.514Z,15.80
2018-07-21T11:45:18.115Z,12.43
2018-07-21T11:47:46.300Z,15.50
2018-07-21T11:50:14.417Z,14.05
2018-07-21T11:52:42.572Z,12.88
2018-07-21T11:55:10.760Z,11.75
2018-07-21T11:57:38.937Z,15.55
2018-07-21T12:00:07.261Z,14.18
2018-07-21T12:02:35.376Z,18.23
2018-07-21T12:05:03.508Z,16.23
2018-07-21T12:07:31.687Z,15.53
2018-07-21T12:09:59.873Z,17.92
2018-07-21T12:12:28.062Z,14.73
2018-07-21T12:14:56.242Z,15.88
2018-07-21T12:17:24.549Z,17.35
2018-07-21T12:19:52.722Z,16.95
2018-07-21T12:22:20.817Z,17.82
2018-07-21T12:24:49.006Z,17.73
2018-07-21T12:27:17.202Z,16.23
2018-07-21T12:29:45.378Z,20.85
2018-07-21T12:32:13.648Z,16.62
2018-07-21T12:34:41.733Z,15.50
2018-07-21T12:37:09.941Z,16.52
2018-07-21T12:39:38.110Z,17.65
2018-07-21T12:42:06.330Z,18.42
2018-07-21T12:44:34.488Z,18.32
2018-07-21T12:47:02.683Z,20.97
2018-07-21T12:49:30.854Z,21.33
2018-07-21T12:51:59.061Z,19.35
2018-07-21T12:54:27.230Z,19.75
2018-07-21T12:56:55.431Z,20.15
2018-07-21T12:59:23.609Z,19.30
2018-07-21T13:01:51.806Z,20.27
2018-07-21T13:04:19.976Z,21.02
2018-07-21T13:06:48.082Z,19.82
2018-07-21T13:09:16.245Z,19.20
2018-07-21T13:11:44.446Z,21.27
2018-07-21T13:14:12.620Z,20.37
2018-07-21T13:16:40.814Z,22.55
2018-07-21T13:19:08.998Z,22.17
2018-07-21T13:21:37.206Z,19.80
2018-07-21T13:24:05.393Z,24.92
2018-07-21T13:26:33.589Z,19.55
2018-07-21T13:29:01.778Z,18.57
2018-07-21T13:31:29.976Z,20.12
2018-07-21T13:33:58.113Z,21.10
2018-07-21T13:36:26.295Z,21.85
2018-07-21T13:38:54.499Z,20.97
2018-07-21T13:41:22.729Z,19.23
2018-07-21T13:43:50.865Z,21.57
2018-07-21T13:46:19.059Z,19.57
2018-07-21T13:48:47.250Z,20.95
2018-07-21T13:51:15.353Z,20.97
2018-07-21T13:53:43.518Z,21.35
2018-07-21T13:56:11.686Z,17.20
2018-07-21T13:58:39.887Z,18.90
2018-07-21T14:01:08.398Z,19.10
2018-07-21T14:03:36.571Z,22.65
2018-07-21T14:06:04.933Z,22.32
2018-07-21T14:08:33.046Z,20.43
2018-07-21T14:11:01.159Z,23.55
2018-07-21T14:13:29.325Z,20.40
2018-07-21T14:15:57.571Z,19.25
2018-07-21T14:18:25.710Z,19.87
2018-07-21T14:20:53.862Z,19.92
2018-07-21T14:23:22.050Z,17.27
2018-07-21T14:25:50.229Z,18.90
2018-07-21T14:28:18.434Z,18.27
2018-07-21T14:30:46.597Z,18.32
2018-07-21T14:33:14.698Z,20.97
2018-07-21T14:35:42.926Z,22.50
2018-07-21T14:38:11.078Z,18.15
2018-07-21T14:40:39.290Z,18.70
2018-07-21T14:43:07.443Z,16.30
2018-07-21T14:45:35.526Z,22.45
2018-07-21T14:48:03.609Z,17.87
2018-07-21T14:50:31.790Z,17.15
2018-07-21T14:52:59.918Z,17.73
2018-07-21T14:55:28.062Z,19.92
2018-07-21T14:57:56.158Z,17.70
2018-07-21T15:00:25.254Z,17.02
2018-07-21T15:02:53.349Z,18.15
2018-07-21T15:05:21.774Z,18.35
2018-07-21T15:07:49.945Z,17.73
2018-07-21T15:10:19.034Z,16.15
2018-07-21T15:12:47.214Z,16.77
2018-07-21T15:15:15.408Z,17.57
2018-07-21T15:17:43.655Z,17.17
2018-07-21T15:20:11.798Z,16.75
2018-07-21T15:22:39.982Z,14.95
2018-07-21T15:25:08.169Z,15.13
2018-07-21T15:27:36.425Z,17.57
2018-07-21T15:30:04.598Z,17.00
2018-07-21T15:32:32.738Z,17.10
2018-07-21T15:35:00.910Z,18.30
2018-07-21T15:37:29.107Z,20.05
2018-07-21T15:39:57.293Z,19.62
2018-07-21T15:42:25.481Z,16.93
2018-07-21T15:44:53.673Z,14.75
2018-07-21T15:47:21.833Z,15.48
2018-07-21T15:49:50.042Z,17.52
2018-07-21T15:52:18.389Z,19.05
2018-07-21T15:54:46.551Z,17.70
2018-07-21T15:57:14.722Z,16.15
2018-07-21T15:59:42.885Z,14.58
2018-07-21T16:02:11.214Z,13.95
2018-07-21T16:04:39.361Z,13.68
2018-07-21T16:07:07.542Z,13.43
2018-07-21T16:09:35.778Z,13.22
2018-07-21T16:12:03.922Z,13.85
2018-07-21T16:14:32.119Z,13.03
2018-07-21T16:17:00.293Z,13.03
2018-07-21T16:19:28.490Z,15.08
2018-07-21T16:21:56.665Z,13.20
2018-07-21T16:24:24.854Z,16.05
2018-07-21T16:26:53.038Z,13.10
2018-07-21T16:29:21.238Z,11.90
2018-07-21T16:31:49.404Z,10.40
2018-07-21T16:34:17.598Z,9.68
2018-07-21T16:36:45.713Z,11.90
2018-07-21T16:39:13.902Z,10.88
2018-07-21T16:41:42.050Z,10.93
2018-07-21T16:44:10.258Z,11.70
2018-07-21T16:46:38.342Z,11.22
2018-07-21T16:49:06.558Z,10.25
2018-07-21T16:51:34.817Z,11.57
2018-07-21T16:54:03.006Z,12.05
2018-07-21T16:56:31.186Z,11.78
2018-07-21T16:58:59.370Z,10.88
2018-07-21T17:01:27.554Z,14.25
2018-07-21T17:03:55.751Z,13.45
2018-07-21T17:06:23.934Z,13.40
2018-07-21T17:08:52.115Z,11.08
2018-07-21T17:11:20.285Z,10.48
2018-07-21T17:13:48.598Z,9.25
2018-07-21T17:16:16.774Z,10.28
2018-07-21T17:18:44.973Z,13.35
2018-07-21T17:21:13.237Z,14.15
2018-07-21T17:23:41.336Z,11.60
2018-07-21T17:26:09.514Z,14.80
2018-07-21T17:28:37.717Z,14.98
2018-07-21T17:31:06.030Z,15.50
2018-07-21T17:33:34.214Z,15.63
2018-07-21T17:36:02.370Z,13.18
2018-07-21T17:38:30.681Z,13.35
2018-07-21T17:40:58.965Z,12.33
2018-07-21T17:43:27.159Z,13.85
2018-07-21T17:45:55.325Z,15.15
2018-07-21T17:48:23.513Z,17.20
2018-07-21T17:50:51.930Z,21.75
2018-07-21T17:53:20.118Z,21.35
2018-07-21T17:55:48.281Z,19.12
2018-07-21T17:58:16.463Z,19.23
2018-07-21T18:00:44.650Z,17.00
2018-07-21T18:03:12.785Z,19.92
2018-07-21T18:05:40.934Z,22.20
2018-07-21T18:08:09.140Z,25.62
2018-07-21T18:10:37.529Z,19.55
2018-07-21T18:13:05.618Z,20.12
2018-07-21T18:15:33.821Z,21.70
2018-07-21T18:18:01.954Z,21.85
2018-07-21T18:20:30.141Z,17.67
2018-07-21T18:22:58.318Z,15.18
2018-07-21T18:25:26.466Z,11.80
2018-07-21T18:27:54.595Z,16.05
2018-07-21T18:30:22.782Z,14.07
2018-07-21T18:32:50.961Z,15.03
2018-07-21T18:35:19.070Z,12.93
2018-07-21T18:37:47.269Z,13.90
2018-07-21T18:40:15.438Z,12.37
2018-07-21T18:42:43.606Z,10.45
2018-07-21T18:45:11.716Z,11.55
2018-07-21T18:47:39.878Z,11.20
2018-07-21T18:50:08.621Z,12.23
2018-07-21T18:52:36.763Z,11.10
2018-07-21T18:55:04.861Z,10.18
2018-07-21T18:57:33.025Z,10.23
2018-07-21T19:00:01.177Z,10.82
2018-07-21T19:02:29.327Z,8.70
2018-07-21T19:04:57.502Z,11.05
2018-07-21T19:07:25.689Z,10.30
2018-07-21T19:09:53.873Z,9.30
2018-07-21T19:12:27.566Z,9.60
2018-07-21T19:14:55.675Z,10.32
2018-07-21T19:17:23.903Z,8.70
2018-07-21T19:19:57.490Z,9.30
2018-07-21T19:22:25.742Z,8.73
2018-07-21T19:24:53.861Z,10.45
2018-07-21T19:27:27.638Z,11.97
2018-07-21T19:29:55.758Z,9.28
2018-07-21T19:32:29.322Z,10.32
2018-07-21T19:34:57.475Z,11.53
2018-07-21T19:37:31.132Z,8.83
2018-07-21T19:39:59.277Z,9.88
2018-07-21T19:42:27.454Z,12.30
2018-07-21T19:44:55.546Z,10.98
2018-07-21T19:47:23.806Z,13.70
2018-07-21T19:49:51.917Z,9.53
2018-07-21T19:52:20.098Z,10.08
2018-07-21T19:54:48.274Z,10.55
2018-07-21T19:57:16.458Z,9.33
2018-07-21T19:59:44.649Z,11.25
2018-07-21T20:02:12.838Z,7.78
2018-07-21T20:04:41.034Z,8.08
2018-07-21T20:07:09.249Z,7.60
2018-07-21T20:09:37.417Z,10.50
2018-07-21T20:12:05.595Z,7.97
2018-07-21T20:14:33.786Z,10.53
2018-07-21T20:17:01.957Z,10.93
2018-07-21T20:19:30.125Z,7.22
2018-07-21T20:21:58.036Z,7.58
2018-07-21T20:24:26.198Z,8.58
2018-07-21T20:26:54.277Z,6.55
2018-07-21T20:29:22.374Z,6.53
2018-07-21T20:31:50.557Z,5.83
2018-07-21T20:34:18.629Z,6.53
2018-07-21T20:36:46.621Z,6.17
2018-07-21T20:39:14.719Z,8.80
2018-07-21T20:41:42.914Z,6.42
2018-07-21T20:44:11.100Z,8.00
2018-07-21T20:46:39.274Z,7.55
2018-07-21T20:49:07.449Z,8.10
2018-07-21T20:51:35.535Z,8.63
2018-07-21T20:54:03.647Z,7.80
2018-07-21T20:56:31.817Z,9.45
2018-07-21T20:59:00.023Z,7.35
2018-07-21T21:01:28.238Z,11.00
2018-07-21T21:03:56.370Z,11.15
2018-07-21T21:06:24.542Z,10.40
2018-07-21T21:08:52.647Z,12.65
2018-07-21T21:11:20.749Z,7.15
2018-07-21T21:13:48.918Z,6.70
2018-07-21T21:16:17.340Z,8.20
2018-07-21T21:18:45.490Z,8.28
2018-07-21T21:21:13.686Z,7.12
2018-07-21T21:23:41.757Z,10.50
2018-07-21T21:26:09.986Z,6.40
2018-07-21T21:28:38.143Z,6.70
2018-07-21T21:31:06.380Z,11.57
2018-07-21T21:33:34.505Z,6.30
2018-07-21T21:36:03.475Z,6.87
2018-07-21T21:38:31.606Z,7.60
2018-07-21T21:40:59.789Z,7.33
2018-07-21T21:43:27.969Z,6.75
2018-07-21T21:45:56.058Z,9.13
2018-07-21T21:48:24.311Z,7.28
2018-07-21T21:50:52.872Z,5.60
2018-07-21T21:53:21.026Z,5.50
2018-07-21T21:55:49.122Z,5.83
2018-07-21T21:58:17.297Z,5.85
2018-07-21T22:00:58.713Z,6.00
2018-07-21T22:03:28.241Z,5.70
2018-07-21T22:05:56.647Z,6.25
2018-07-21T22:08:24.786Z,5.30
2018-07-21T22:10:52.881Z,5.67
2018-07-21T22:13:21.067Z,6.10
2018-07-21T22:15:49.150Z,7.55
2018-07-21T22:18:17.469Z,4.90
2018-07-21T22:20:45.641Z,6.20
2018-07-21T22:23:13.838Z,5.30
2018-07-21T22:25:42.010Z,7.67
2018-07-21T22:28:10.214Z,9.23
2018-07-21T22:30:38.393Z,5.92
2018-07-21T22:33:06.570Z,6.55
2018-07-21T22:35:34.762Z,6.70
2018-07-21T22:38:03.369Z,7.87
2018-07-21T22:40:31.549Z,6.00
2018-07-21T22:42:59.970Z,6.45
2018-07-21T22:45:28.451Z,8.25
2018-07-21T22:47:56.643Z,7.83
2018-07-21T22:50:25.235Z,7.28
2018-07-21T22:52:53.405Z,6.53
2018-07-21T22:55:21.590Z,6.08
2018-07-21T22:57:49.782Z,9.58
2018-07-21T23:00:17.958Z,6.22
2018-07-21T23:02:46.149Z,9.50
2018-07-21T23:05:14.333Z,7.42
2018-07-21T23:07:42.522Z,6.28
2018-07-21T23:10:10.717Z,5.87
2018-07-21T23:12:38.902Z,5.92
2018-07-21T23:15:08.017Z,6.05
2018-07-21T23:17:36.314Z,5.70
2018-07-21T23:20:05.826Z,5.87
2018-07-21T23:22:33.983Z,5.47
2018-07-21T23:25:02.079Z,6.97
2018-07-21T23:27:30.154Z,6.25
2018-07-21T23:29:58.249Z,5.60
2018-07-21T23:32:26.428Z,5.30
2018-07-21T23:34:54.485Z,6.53
2018-07-21T23:37:22.420Z,5.80
2018-07-21T23:39:50.579Z,8.08
2018-07-21T23:42:18.766Z,9.73
2018-07-21T23:44:46.949Z,5.12
2018-07-21T23:47:15.032Z,5.85
2018-07-21T23:49:43.113Z,6.03
2018-07-21T23:52:11.198Z,5.75
2018-07-21T23:54:39.290Z,4.58
2018-07-21T23:57:07.609Z,4.30
2018-07-21T23:59:35.754Z,5.40
